sensor_id;sensor_type;location;lat;lon;timestamp;temperature;humidity
49855;DHT22;35752;52.164;21.244;2023-02-19T00:01:22;3.50;99.90
49855;DHT22;35752;52.164;21.244;2023-02-19T00:03:49;3.60;99.90
49855;DHT22;35752;52.164;21.244;2023-02-19T00:06:16;3.50;99.90
49855;DHT22;35752;52.164;21.244;2023-02-19T00:08:42;3.50;99.90
49855;DHT22;35752;52.164;21.244;2023-02-19T00:11:08;3.50;99.90
49855;DHT22;35752;52.164;21.244;2023-02-19T00:13:36;3.50;99.90
49855;DHT22;35752;52.164;21.244;2023-02-19T00:18:39;3.40;99.90
49855;DHT22;35752;52.164;21.244;2023-02-19T00:21:05;3.50;99.90
49855;DHT22;35752;52.164;21.244;2023-02-19T00:23:30;3.50;99.90
49855;DHT22;35752;52.164;21.244;2023-02-19T00:25:56;3.50;99.90
49855;DHT22;35752;52.164;21.244;2023-02-19T00:28:21;3.50;99.90
49855;DHT22;35752;52.164;21.244;2023-02-19T00:30:47;3.40;99.90
49855;DHT22;35752;52.164;21.244;2023-02-19T00:33:14;3.50;99.90
49855;DHT22;35752;52.164;21.244;2023-02-19T00:35:39;3.50;99.90
49855;DHT22;35752;52.164;21.244;2023-02-19T00:38:05;3.50;99.90
49855;DHT22;35752;52.164;21.244;2023-02-19T00:40:30;3.50;99.90
49855;DHT22;35752;52.164;21.244;2023-02-19T00:42:56;3.50;99.90
49855;DHT22;35752;52.164;21.244;2023-02-19T00:45:21;3.40;99.90
49855;DHT22;35752;52.164;21.244;2023-02-19T00:47:47;3.50;99.90
49855;DHT22;35752;52.164;21.244;2023-02-19T00:50:13;3.50;99.90
49855;DHT22;35752;52.164;21.244;2023-02-19T00:52:38;3.50;99.90
49855;DHT22;35752;52.164;21.244;2023-02-19T00:55:04;3.50;99.90
49855;DHT22;35752;52.164;21.244;2023-02-19T00:57:29;3.50;99.90
49855;DHT22;35752;52.164;21.244;2023-02-19T00:59:55;3.50;99.90
49855;DHT22;35752;52.164;21.244;2023-02-19T01:02:20;3.60;99.90
49855;DHT22;35752;52.164;21.244;2023-02-19T01:04:46;3.60;99.90
49855;DHT22;35752;52.164;21.244;2023-02-19T01:07:11;3.60;99.90
49855;DHT22;35752;52.164;21.244;2023-02-19T01:09:37;3.60;99.90
49855;DHT22;35752;52.164;21.244;2023-02-19T01:12:03;3.60;99.90
49855;DHT22;35752;52.164;21.244;2023-02-19T01:14:29;3.60;99.90
49855;DHT22;35752;52.164;21.244;2023-02-19T01:16:55;3.60;99.90
49855;DHT22;35752;52.164;21.244;2023-02-19T01:19:20;3.50;99.90
49855;DHT22;35752;52.164;21.244;2023-02-19T01:21:45;3.60;99.90
49855;DHT22;35752;52.164;21.244;2023-02-19T01:24:11;3.60;99.90
49855;DHT22;35752;52.164;21.244;2023-02-19T01:26:36;3.60;99.90
49855;DHT22;35752;52.164;21.244;2023-02-19T01:29:02;3.60;99.90
49855;DHT22;35752;52.164;21.244;2023-02-19T01:31:28;3.60;99.90
49855;DHT22;35752;52.164;21.244;2023-02-19T01:33:55;3.60;99.90
49855;DHT22;35752;52.164;21.244;2023-02-19T01:36:21;3.60;99.90
49855;DHT22;35752;52.164;21.244;2023-02-19T01:38:47;3.60;99.90
49855;DHT22;35752;52.164;21.244;2023-02-19T01:41:15;3.60;99.90
49855;DHT22;35752;52.164;21.244;2023-02-19T01:46:26;3.60;99.90
49855;DHT22;35752;52.164;21.244;2023-02-19T01:48:51;3.60;99.90
49855;DHT22;35752;52.164;21.244;2023-02-19T01:51:18;3.70;99.90
49855;DHT22;35752;52.164;21.244;2023-02-19T01:53:45;3.70;99.90
49855;DHT22;35752;52.164;21.244;2023-02-19T01:56:12;3.60;99.90
49855;DHT22;35752;52.164;21.244;2023-02-19T01:58:38;3.70;99.90
49855;DHT22;35752;52.164;21.244;2023-02-19T02:01:04;3.70;99.90
49855;DHT22;35752;52.164;21.244;2023-02-19T02:03:31;3.70;99.90
49855;DHT22;35752;52.164;21.244;2023-02-19T02:06:08;3.70;99.90
49855;DHT22;35752;52.164;21.244;2023-02-19T02:08:35;3.70;99.90
49855;DHT22;35752;52.164;21.244;2023-02-19T02:11:20;3.70;99.90
49855;DHT22;35752;52.164;21.244;2023-02-19T02:13:46;3.70;99.90
49855;DHT22;35752;52.164;21.244;2023-02-19T02:16:26;3.70;99.90
49855;DHT22;35752;52.164;21.244;2023-02-19T02:24:10;3.70;99.90
49855;DHT22;35752;52.164;21.244;2023-02-19T02:31:34;3.70;99.90
49855;DHT22;35752;52.164;21.244;2023-02-19T02:34:05;3.70;99.90
49855;DHT22;35752;52.164;21.244;2023-02-19T02:36:38;3.70;99.90
49855;DHT22;35752;52.164;21.244;2023-02-19T02:39:07;3.70;99.90
49855;DHT22;35752;52.164;21.244;2023-02-19T02:41:34;3.70;99.90
49855;DHT22;35752;52.164;21.244;2023-02-19T02:44:04;3.70;99.90
49855;DHT22;35752;52.164;21.244;2023-02-19T02:46:32;3.70;99.90
49855;DHT22;35752;52.164;21.244;2023-02-19T02:49:00;3.70;99.90
49855;DHT22;35752;52.164;21.244;2023-02-19T02:56:42;3.60;99.90
49855;DHT22;35752;52.164;21.244;2023-02-19T02:59:10;3.70;99.90
49855;DHT22;35752;52.164;21.244;2023-02-19T03:01:38;3.60;99.90
49855;DHT22;35752;52.164;21.244;2023-02-19T03:04:26;3.60;99.90
49855;DHT22;35752;52.164;21.244;2023-02-19T03:06:54;3.60;99.90
49855;DHT22;35752;52.164;21.244;2023-02-19T03:09:23;3.60;99.90
49855;DHT22;35752;52.164;21.244;2023-02-19T03:11:54;3.60;99.90
49855;DHT22;35752;52.164;21.244;2023-02-19T03:14:41;3.70;99.90
49855;DHT22;35752;52.164;21.244;2023-02-19T03:17:28;3.70;99.90
49855;DHT22;35752;52.164;21.244;2023-02-19T03:20:15;3.60;99.90
49855;DHT22;35752;52.164;21.244;2023-02-19T03:22:44;3.60;99.90
49855;DHT22;35752;52.164;21.244;2023-02-19T03:25:12;3.60;99.90
49855;DHT22;35752;52.164;21.244;2023-02-19T03:27:58;3.60;99.90
49855;DHT22;35752;52.164;21.244;2023-02-19T03:30:27;3.60;99.90
49855;DHT22;35752;52.164;21.244;2023-02-19T03:32:54;3.60;99.90
49855;DHT22;35752;52.164;21.244;2023-02-19T03:35:23;3.60;99.90
49855;DHT22;35752;52.164;21.244;2023-02-19T03:40:21;3.60;99.90
49855;DHT22;35752;52.164;21.244;2023-02-19T03:50:48;3.50;99.90
49855;DHT22;35752;52.164;21.244;2023-02-19T03:58:13;3.50;99.90
49855;DHT22;35752;52.164;21.244;2023-02-19T04:05:38;3.40;99.90
49855;DHT22;35752;52.164;21.244;2023-02-19T04:08:08;3.40;99.90
49855;DHT22;35752;52.164;21.244;2023-02-19T04:10:35;3.40;99.90
49855;DHT22;35752;52.164;21.244;2023-02-19T04:13:09;3.40;99.90
49855;DHT22;35752;52.164;21.244;2023-02-19T04:15:36;3.40;99.90
49855;DHT22;35752;52.164;21.244;2023-02-19T04:18:14;3.30;99.90
49855;DHT22;35752;52.164;21.244;2023-02-19T04:20:43;3.30;99.90
49855;DHT22;35752;52.164;21.244;2023-02-19T04:23:09;3.30;99.90
49855;DHT22;35752;52.164;21.244;2023-02-19T04:25:36;3.20;99.90
49855;DHT22;35752;52.164;21.244;2023-02-19T04:28:02;3.20;99.90
49855;DHT22;35752;52.164;21.244;2023-02-19T04:30:28;3.10;99.90
49855;DHT22;35752;52.164;21.244;2023-02-19T04:32:53;3.10;99.90
49855;DHT22;35752;52.164;21.244;2023-02-19T04:35:19;3.10;99.90
49855;DHT22;35752;52.164;21.244;2023-02-19T04:37:44;3.00;99.90
49855;DHT22;35752;52.164;21.244;2023-02-19T04:40:10;3.00;99.90
49855;DHT22;35752;52.164;21.244;2023-02-19T04:42:35;2.90;99.90
49855;DHT22;35752;52.164;21.244;2023-02-19T04:45:01;2.90;99.90
49855;DHT22;35752;52.164;21.244;2023-02-19T04:47:26;2.90;99.90
49855;DHT22;35752;52.164;21.244;2023-02-19T04:49:52;2.90;99.90
49855;DHT22;35752;52.164;21.244;2023-02-19T04:52:17;2.90;99.90
49855;DHT22;35752;52.164;21.244;2023-02-19T04:54:43;2.90;99.90
49855;DHT22;35752;52.164;21.244;2023-02-19T04:57:08;2.80;99.90
49855;DHT22;35752;52.164;21.244;2023-02-19T04:59:34;2.80;99.90
49855;DHT22;35752;52.164;21.244;2023-02-19T05:01:59;2.80;99.90
49855;DHT22;35752;52.164;21.244;2023-02-19T05:04:25;2.80;99.90
49855;DHT22;35752;52.164;21.244;2023-02-19T05:06:50;2.80;99.90
49855;DHT22;35752;52.164;21.244;2023-02-19T05:09:16;2.80;99.90
49855;DHT22;35752;52.164;21.244;2023-02-19T05:11:41;2.80;99.90
49855;DHT22;35752;52.164;21.244;2023-02-19T05:14:07;2.80;99.90
49855;DHT22;35752;52.164;21.244;2023-02-19T05:16:32;2.80;99.90
49855;DHT22;35752;52.164;21.244;2023-02-19T05:18:58;2.80;99.90
49855;DHT22;35752;52.164;21.244;2023-02-19T05:21:23;2.90;99.90
49855;DHT22;35752;52.164;21.244;2023-02-19T05:23:49;2.90;99.90
49855;DHT22;35752;52.164;21.244;2023-02-19T05:26:16;2.90;99.90
49855;DHT22;35752;52.164;21.244;2023-02-19T05:28:42;2.90;99.90
49855;DHT22;35752;52.164;21.244;2023-02-19T05:31:09;2.90;99.90
49855;DHT22;35752;52.164;21.244;2023-02-19T05:33:35;2.80;99.90
49855;DHT22;35752;52.164;21.244;2023-02-19T05:36:03;2.90;99.90
49855;DHT22;35752;52.164;21.244;2023-02-19T05:38:29;2.90;99.90
49855;DHT22;35752;52.164;21.244;2023-02-19T05:40:54;2.90;99.90
49855;DHT22;35752;52.164;21.244;2023-02-19T05:43:20;2.90;99.90
49855;DHT22;35752;52.164;21.244;2023-02-19T05:45:45;2.90;99.90
49855;DHT22;35752;52.164;21.244;2023-02-19T05:48:11;2.90;99.90
49855;DHT22;35752;52.164;21.244;2023-02-19T05:50:37;2.90;99.90
49855;DHT22;35752;52.164;21.244;2023-02-19T05:53:02;2.80;99.90
49855;DHT22;35752;52.164;21.244;2023-02-19T05:55:28;2.80;99.90
49855;DHT22;35752;52.164;21.244;2023-02-19T05:57:54;2.80;99.90
49855;DHT22;35752;52.164;21.244;2023-02-19T06:00:20;2.80;99.90
49855;DHT22;35752;52.164;21.244;2023-02-19T06:02:45;2.80;99.90
49855;DHT22;35752;52.164;21.244;2023-02-19T06:05:11;2.80;99.90
49855;DHT22;35752;52.164;21.244;2023-02-19T06:07:37;2.80;99.90
49855;DHT22;35752;52.164;21.244;2023-02-19T06:10:10;2.80;99.90
49855;DHT22;35752;52.164;21.244;2023-02-19T06:12:37;2.80;99.90
49855;DHT22;35752;52.164;21.244;2023-02-19T06:15:03;2.80;99.90
49855;DHT22;35752;52.164;21.244;2023-02-19T06:17:29;2.90;99.90
49855;DHT22;35752;52.164;21.244;2023-02-19T06:19:54;2.90;99.90
49855;DHT22;35752;52.164;21.244;2023-02-19T06:22:20;2.90;99.90
49855;DHT22;35752;52.164;21.244;2023-02-19T06:24:45;2.90;99.90
49855;DHT22;35752;52.164;21.244;2023-02-19T06:27:11;3.00;99.90
49855;DHT22;35752;52.164;21.244;2023-02-19T06:29:36;3.00;99.90
49855;DHT22;35752;52.164;21.244;2023-02-19T06:32:03;3.00;99.90
49855;DHT22;35752;52.164;21.244;2023-02-19T06:34:28;3.00;99.90
49855;DHT22;35752;52.164;21.244;2023-02-19T06:36:54;3.10;99.90
49855;DHT22;35752;52.164;21.244;2023-02-19T06:39:19;3.10;99.90
49855;DHT22;35752;52.164;21.244;2023-02-19T06:41:45;3.10;99.90
49855;DHT22;35752;52.164;21.244;2023-02-19T06:44:10;3.20;99.90
49855;DHT22;35752;52.164;21.244;2023-02-19T06:46:35;3.20;99.90
49855;DHT22;35752;52.164;21.244;2023-02-19T06:49:02;3.30;99.90
49855;DHT22;35752;52.164;21.244;2023-02-19T06:51:28;3.20;99.90
49855;DHT22;35752;52.164;21.244;2023-02-19T06:53:54;3.30;99.90
49855;DHT22;35752;52.164;21.244;2023-02-19T06:58:45;3.40;99.90
49855;DHT22;35752;52.164;21.244;2023-02-19T07:01:10;3.50;99.90
49855;DHT22;35752;52.164;21.244;2023-02-19T07:03:36;3.40;99.90
49855;DHT22;35752;52.164;21.244;2023-02-19T07:06:01;3.50;99.90
49855;DHT22;35752;52.164;21.244;2023-02-19T07:08:27;3.50;99.90
49855;DHT22;35752;52.164;21.244;2023-02-19T07:10:53;3.50;99.90
49855;DHT22;35752;52.164;21.244;2023-02-19T07:13:19;3.50;99.90
49855;DHT22;35752;52.164;21.244;2023-02-19T07:15:45;3.50;99.90
49855;DHT22;35752;52.164;21.244;2023-02-19T07:18:10;3.50;99.90
49855;DHT22;35752;52.164;21.244;2023-02-19T07:20:36;3.50;99.90
49855;DHT22;35752;52.164;21.244;2023-02-19T07:23:01;3.50;99.90
49855;DHT22;35752;52.164;21.244;2023-02-19T07:25:27;3.50;99.90
49855;DHT22;35752;52.164;21.244;2023-02-19T07:27:52;3.50;99.90
49855;DHT22;35752;52.164;21.244;2023-02-19T07:30:18;3.50;99.90
49855;DHT22;35752;52.164;21.244;2023-02-19T07:32:43;3.50;99.90
49855;DHT22;35752;52.164;21.244;2023-02-19T07:35:09;3.50;99.90
49855;DHT22;35752;52.164;21.244;2023-02-19T07:37:35;3.50;99.90
49855;DHT22;35752;52.164;21.244;2023-02-19T07:40:01;3.50;99.90
49855;DHT22;35752;52.164;21.244;2023-02-19T07:42:26;3.50;99.90
49855;DHT22;35752;52.164;21.244;2023-02-19T07:44:51;3.50;99.90
49855;DHT22;35752;52.164;21.244;2023-02-19T07:47:17;3.60;99.90
49855;DHT22;35752;52.164;21.244;2023-02-19T07:49:43;3.50;99.90
49855;DHT22;35752;52.164;21.244;2023-02-19T07:52:08;3.60;99.90
49855;DHT22;35752;52.164;21.244;2023-02-19T07:54:33;3.60;99.90
49855;DHT22;35752;52.164;21.244;2023-02-19T07:56:59;3.70;99.90
49855;DHT22;35752;52.164;21.244;2023-02-19T07:59:24;3.70;99.90
49855;DHT22;35752;52.164;21.244;2023-02-19T08:01:50;3.70;99.90
49855;DHT22;35752;52.164;21.244;2023-02-19T08:04:39;3.80;99.90
49855;DHT22;35752;52.164;21.244;2023-02-19T08:07:04;3.80;99.90
49855;DHT22;35752;52.164;21.244;2023-02-19T08:09:30;3.80;99.90
49855;DHT22;35752;52.164;21.244;2023-02-19T08:11:56;3.90;99.90
49855;DHT22;35752;52.164;21.244;2023-02-19T08:14:40;4.00;99.90
49855;DHT22;35752;52.164;21.244;2023-02-19T08:17:05;4.00;99.90
49855;DHT22;35752;52.164;21.244;2023-02-19T08:19:31;4.00;99.90
49855;DHT22;35752;52.164;21.244;2023-02-19T08:21:56;4.00;99.90
49855;DHT22;35752;52.164;21.244;2023-02-19T08:24:22;4.10;99.90
49855;DHT22;35752;52.164;21.244;2023-02-19T08:26:47;4.10;99.90
49855;DHT22;35752;52.164;21.244;2023-02-19T08:29:13;4.00;99.90
49855;DHT22;35752;52.164;21.244;2023-02-19T08:31:38;4.00;99.90
49855;DHT22;35752;52.164;21.244;2023-02-19T08:34:04;4.00;99.90
49855;DHT22;35752;52.164;21.244;2023-02-19T08:36:29;4.10;99.90
49855;DHT22;35752;52.164;21.244;2023-02-19T08:38:55;4.00;99.90
49855;DHT22;35752;52.164;21.244;2023-02-19T08:41:20;4.00;99.90
49855;DHT22;35752;52.164;21.244;2023-02-19T08:43:46;4.00;99.90
49855;DHT22;35752;52.164;21.244;2023-02-19T08:46:12;4.00;99.90
49855;DHT22;35752;52.164;21.244;2023-02-19T08:48:37;4.00;99.90
49855;DHT22;35752;52.164;21.244;2023-02-19T08:51:04;4.00;99.90
49855;DHT22;35752;52.164;21.244;2023-02-19T08:53:32;4.00;99.90
49855;DHT22;35752;52.164;21.244;2023-02-19T08:56:03;4.00;99.90
49855;DHT22;35752;52.164;21.244;2023-02-19T08:58:28;4.00;99.90
49855;DHT22;35752;52.164;21.244;2023-02-19T09:00:54;4.10;99.90
49855;DHT22;35752;52.164;21.244;2023-02-19T09:03:19;4.00;99.90
49855;DHT22;35752;52.164;21.244;2023-02-19T09:05:45;3.90;99.90
49855;DHT22;35752;52.164;21.244;2023-02-19T09:08:13;3.90;99.90
49855;DHT22;35752;52.164;21.244;2023-02-19T09:10:40;4.00;99.90
49855;DHT22;35752;52.164;21.244;2023-02-19T09:13:05;4.00;99.90
49855;DHT22;35752;52.164;21.244;2023-02-19T09:15:31;4.00;99.90
49855;DHT22;35752;52.164;21.244;2023-02-19T09:17:57;4.00;99.90
49855;DHT22;35752;52.164;21.244;2023-02-19T09:20:23;4.00;99.90
49855;DHT22;35752;52.164;21.244;2023-02-19T09:22:49;4.00;99.90
49855;DHT22;35752;52.164;21.244;2023-02-19T09:25:14;4.00;99.90
49855;DHT22;35752;52.164;21.244;2023-02-19T09:27:40;4.10;99.90
49855;DHT22;35752;52.164;21.244;2023-02-19T09:30:06;4.10;99.90
49855;DHT22;35752;52.164;21.244;2023-02-19T09:32:31;4.10;99.90
49855;DHT22;35752;52.164;21.244;2023-02-19T09:34:57;4.10;99.90
49855;DHT22;35752;52.164;21.244;2023-02-19T09:37:26;4.10;99.90
49855;DHT22;35752;52.164;21.244;2023-02-19T09:39:52;4.10;99.90
49855;DHT22;35752;52.164;21.244;2023-02-19T09:42:18;4.20;99.90
49855;DHT22;35752;52.164;21.244;2023-02-19T09:44:48;4.30;99.90
49855;DHT22;35752;52.164;21.244;2023-02-19T09:47:16;4.40;99.90
49855;DHT22;35752;52.164;21.244;2023-02-19T09:49:43;4.30;99.90
49855;DHT22;35752;52.164;21.244;2023-02-19T09:54:51;4.40;99.90
49855;DHT22;35752;52.164;21.244;2023-02-19T09:57:22;4.40;99.90
49855;DHT22;35752;52.164;21.244;2023-02-19T09:59:49;4.40;99.90
49855;DHT22;35752;52.164;21.244;2023-02-19T10:02:15;4.40;99.90
49855;DHT22;35752;52.164;21.244;2023-02-19T10:04:42;4.40;99.90
49855;DHT22;35752;52.164;21.244;2023-02-19T10:07:09;4.40;99.90
49855;DHT22;35752;52.164;21.244;2023-02-19T10:09:36;4.40;99.90
49855;DHT22;35752;52.164;21.244;2023-02-19T10:12:02;4.60;99.90
49855;DHT22;35752;52.164;21.244;2023-02-19T10:14:33;4.60;99.90
49855;DHT22;35752;52.164;21.244;2023-02-19T10:17:00;4.70;99.90
49855;DHT22;35752;52.164;21.244;2023-02-19T10:19:27;4.80;99.90
49855;DHT22;35752;52.164;21.244;2023-02-19T10:21:53;4.90;99.90
49855;DHT22;35752;52.164;21.244;2023-02-19T10:24:23;5.00;99.90
49855;DHT22;35752;52.164;21.244;2023-02-19T10:26:50;5.00;99.90
49855;DHT22;35752;52.164;21.244;2023-02-19T10:29:15;5.10;99.90
49855;DHT22;35752;52.164;21.244;2023-02-19T10:31:41;5.30;99.90
49855;DHT22;35752;52.164;21.244;2023-02-19T10:34:11;5.50;99.90
49855;DHT22;35752;52.164;21.244;2023-02-19T10:36:41;5.50;99.90
49855;DHT22;35752;52.164;21.244;2023-02-19T10:39:21;5.50;99.90
49855;DHT22;35752;52.164;21.244;2023-02-19T10:41:49;5.60;99.90
49855;DHT22;35752;52.164;21.244;2023-02-19T10:44:17;5.60;99.90
49855;DHT22;35752;52.164;21.244;2023-02-19T10:46:46;5.50;99.90
49855;DHT22;35752;52.164;21.244;2023-02-19T10:51:46;5.10;99.90
49855;DHT22;35752;52.164;21.244;2023-02-19T10:56:40;5.20;99.90
49855;DHT22;35752;52.164;21.244;2023-02-19T10:59:13;5.30;99.90
49855;DHT22;35752;52.164;21.244;2023-02-19T11:01:51;5.20;99.90
49855;DHT22;35752;52.164;21.244;2023-02-19T11:04:17;5.30;99.90
49855;DHT22;35752;52.164;21.244;2023-02-19T11:06:42;5.30;99.90
49855;DHT22;35752;52.164;21.244;2023-02-19T11:09:31;5.20;99.90
49855;DHT22;35752;52.164;21.244;2023-02-19T11:11:55;5.30;99.90
49855;DHT22;35752;52.164;21.244;2023-02-19T11:14:21;5.50;99.90
49855;DHT22;35752;52.164;21.244;2023-02-19T11:16:55;5.60;99.90
49855;DHT22;35752;52.164;21.244;2023-02-19T11:21:50;5.70;99.90
49855;DHT22;35752;52.164;21.244;2023-02-19T11:24:23;5.60;99.90
49855;DHT22;35752;52.164;21.244;2023-02-19T11:26:50;5.50;99.90
49855;DHT22;35752;52.164;21.244;2023-02-19T11:29:19;5.60;99.90
49855;DHT22;35752;52.164;21.244;2023-02-19T11:31:47;5.60;99.90
49855;DHT22;35752;52.164;21.244;2023-02-19T11:36:38;5.50;99.90
49855;DHT22;35752;52.164;21.244;2023-02-19T11:44:37;5.50;99.90
49855;DHT22;35752;52.164;21.244;2023-02-19T11:50:25;5.50;99.90
49855;DHT22;35752;52.164;21.244;2023-02-19T11:52:50;5.40;99.90
49855;DHT22;35752;52.164;21.244;2023-02-19T11:55:24;5.40;99.90
49855;DHT22;35752;52.164;21.244;2023-02-19T11:58:08;5.50;99.90
49855;DHT22;35752;52.164;21.244;2023-02-19T12:00:41;5.60;99.90
49855;DHT22;35752;52.164;21.244;2023-02-19T12:03:16;5.60;99.90
49855;DHT22;35752;52.164;21.244;2023-02-19T12:10:51;5.40;99.90
49855;DHT22;35752;52.164;21.244;2023-02-19T12:15:56;5.40;99.90
49855;DHT22;35752;52.164;21.244;2023-02-19T12:41:50;5.60;99.90
49855;DHT22;35752;52.164;21.244;2023-02-19T12:44:21;5.60;99.90
49855;DHT22;35752;52.164;21.244;2023-02-19T12:46:51;5.50;99.90
49855;DHT22;35752;52.164;21.244;2023-02-19T12:49:22;5.50;99.90
49855;DHT22;35752;52.164;21.244;2023-02-19T12:51:54;5.40;99.90
49855;DHT22;35752;52.164;21.244;2023-02-19T12:57:03;5.30;99.90
49855;DHT22;35752;52.164;21.244;2023-02-19T12:59:31;5.20;99.90
49855;DHT22;35752;52.164;21.244;2023-02-19T13:04:44;5.10;99.90
49855;DHT22;35752;52.164;21.244;2023-02-19T13:07:19;5.00;99.90
49855;DHT22;35752;52.164;21.244;2023-02-19T13:09:48;5.00;99.90
49855;DHT22;35752;52.164;21.244;2023-02-19T13:14:59;5.10;99.90
49855;DHT22;35752;52.164;21.244;2023-02-19T13:19:54;5.50;99.90
49855;DHT22;35752;52.164;21.244;2023-02-19T13:25:11;5.70;99.90
49855;DHT22;35752;52.164;21.244;2023-02-19T13:30:26;5.90;99.90
49855;DHT22;35752;52.164;21.244;2023-02-19T13:38:09;6.10;99.90
49855;DHT22;35752;52.164;21.244;2023-02-19T13:40:37;6.10;99.90
49855;DHT22;35752;52.164;21.244;2023-02-19T13:43:07;6.10;99.90
49855;DHT22;35752;52.164;21.244;2023-02-19T13:45:45;6.10;99.90
49855;DHT22;35752;52.164;21.244;2023-02-19T13:48:12;6.10;99.70
49855;DHT22;35752;52.164;21.244;2023-02-19T13:50:38;6.20;99.90
49855;DHT22;35752;52.164;21.244;2023-02-19T13:55:55;6.10;99.90
49855;DHT22;35752;52.164;21.244;2023-02-19T14:01:15;5.80;99.00
49855;DHT22;35752;52.164;21.244;2023-02-19T14:03:47;5.70;99.90
49855;DHT22;35752;52.164;21.244;2023-02-19T14:06:15;5.70;99.90
49855;DHT22;35752;52.164;21.244;2023-02-19T14:14:25;5.50;99.90
49855;DHT22;35752;52.164;21.244;2023-02-19T14:16:53;5.40;99.90
49855;DHT22;35752;52.164;21.244;2023-02-19T14:22:44;5.50;99.90
49855;DHT22;35752;52.164;21.244;2023-02-19T14:24:49;5.40;99.90
49855;DHT22;35752;52.164;21.244;2023-02-19T14:27:16;5.40;99.90
49855;DHT22;35752;52.164;21.244;2023-02-19T14:29:42;5.30;99.90
49855;DHT22;35752;52.164;21.244;2023-02-19T14:32:09;5.30;99.90
49855;DHT22;35752;52.164;21.244;2023-02-19T14:34:36;5.30;99.90
49855;DHT22;35752;52.164;21.244;2023-02-19T14:37:02;5.30;99.90
49855;DHT22;35752;52.164;21.244;2023-02-19T14:39:31;5.30;99.90
49855;DHT22;35752;52.164;21.244;2023-02-19T14:42:01;5.20;99.60
49855;DHT22;35752;52.164;21.244;2023-02-19T14:44:30;5.30;98.20
49855;DHT22;35752;52.164;21.244;2023-02-19T14:47:03;5.30;97.50
49855;DHT22;35752;52.164;21.244;2023-02-19T14:49:39;5.20;97.60
49855;DHT22;35752;52.164;21.244;2023-02-19T14:52:09;5.20;98.40
49855;DHT22;35752;52.164;21.244;2023-02-19T14:54:42;5.20;98.00
49855;DHT22;35752;52.164;21.244;2023-02-19T14:57:11;5.20;98.10
49855;DHT22;35752;52.164;21.244;2023-02-19T14:59:37;5.20;97.50
49855;DHT22;35752;52.164;21.244;2023-02-19T15:02:13;5.10;97.50
49855;DHT22;35752;52.164;21.244;2023-02-19T15:04:38;5.10;97.50
49855;DHT22;35752;52.164;21.244;2023-02-19T15:07:08;5.00;97.50
49855;DHT22;35752;52.164;21.244;2023-02-19T15:09:36;5.00;97.90
49855;DHT22;35752;52.164;21.244;2023-02-19T15:12:02;5.00;97.20
49855;DHT22;35752;52.164;21.244;2023-02-19T15:14:28;5.00;97.40
49855;DHT22;35752;52.164;21.244;2023-02-19T15:16:56;5.00;97.80
49855;DHT22;35752;52.164;21.244;2023-02-19T15:19:22;5.00;97.60
49855;DHT22;35752;52.164;21.244;2023-02-19T15:21:48;5.00;98.10
49855;DHT22;35752;52.164;21.244;2023-02-19T15:24:15;5.00;98.30
49855;DHT22;35752;52.164;21.244;2023-02-19T15:26:42;5.00;98.00
49855;DHT22;35752;52.164;21.244;2023-02-19T15:29:13;5.00;98.10
49855;DHT22;35752;52.164;21.244;2023-02-19T15:31:58;5.00;97.80
49855;DHT22;35752;52.164;21.244;2023-02-19T15:34:24;5.00;97.90
49855;DHT22;35752;52.164;21.244;2023-02-19T15:36:51;4.90;98.40
49855;DHT22;35752;52.164;21.244;2023-02-19T15:39:25;4.90;98.70
49855;DHT22;35752;52.164;21.244;2023-02-19T15:41:53;4.90;99.30
49855;DHT22;35752;52.164;21.244;2023-02-19T15:44:27;4.90;99.50
49855;DHT22;35752;52.164;21.244;2023-02-19T15:46:55;4.90;99.60
49855;DHT22;35752;52.164;21.244;2023-02-19T15:49:22;4.80;99.90
49855;DHT22;35752;52.164;21.244;2023-02-19T15:51:51;4.80;99.90
49855;DHT22;35752;52.164;21.244;2023-02-19T15:54:24;4.70;99.90
49855;DHT22;35752;52.164;21.244;2023-02-19T15:56:51;4.70;99.90
49855;DHT22;35752;52.164;21.244;2023-02-19T15:59:20;4.50;99.90
49855;DHT22;35752;52.164;21.244;2023-02-19T16:01:47;4.50;99.90
49855;DHT22;35752;52.164;21.244;2023-02-19T16:04:14;4.40;99.90
49855;DHT22;35752;52.164;21.244;2023-02-19T16:07:40;4.30;99.90
49855;DHT22;35752;52.164;21.244;2023-02-19T16:09:35;4.30;99.90
49855;DHT22;35752;52.164;21.244;2023-02-19T16:12:02;4.30;99.90
49855;DHT22;35752;52.164;21.244;2023-02-19T16:17:04;4.20;99.90
49855;DHT22;35752;52.164;21.244;2023-02-19T16:22:12;4.10;99.90
49855;DHT22;35752;52.164;21.244;2023-02-19T16:24:48;4.10;99.90
49855;DHT22;35752;52.164;21.244;2023-02-19T16:30:31;3.90;99.90
49855;DHT22;35752;52.164;21.244;2023-02-19T16:35:39;3.80;99.90
49855;DHT22;35752;52.164;21.244;2023-02-19T16:38:11;3.90;99.90
49855;DHT22;35752;52.164;21.244;2023-02-19T16:40:52;4.00;99.90
49855;DHT22;35752;52.164;21.244;2023-02-19T16:43:27;3.90;99.90
49855;DHT22;35752;52.164;21.244;2023-02-19T16:45:54;3.90;99.90
49855;DHT22;35752;52.164;21.244;2023-02-19T16:48:20;3.90;99.90
49855;DHT22;35752;52.164;21.244;2023-02-19T16:50:46;3.80;99.90
49855;DHT22;35752;52.164;21.244;2023-02-19T16:53:19;3.80;99.90
49855;DHT22;35752;52.164;21.244;2023-02-19T16:55:44;3.90;99.90
49855;DHT22;35752;52.164;21.244;2023-02-19T16:58:10;3.80;99.90
49855;DHT22;35752;52.164;21.244;2023-02-19T17:00:35;3.90;99.90
49855;DHT22;35752;52.164;21.244;2023-02-19T17:03:02;3.90;99.90
49855;DHT22;35752;52.164;21.244;2023-02-19T17:05:33;4.00;99.90
49855;DHT22;35752;52.164;21.244;2023-02-19T17:07:59;3.90;99.90
49855;DHT22;35752;52.164;21.244;2023-02-19T17:10:25;4.00;99.90
49855;DHT22;35752;52.164;21.244;2023-02-19T17:12:51;4.00;99.90
49855;DHT22;35752;52.164;21.244;2023-02-19T17:15:17;4.00;99.90
49855;DHT22;35752;52.164;21.244;2023-02-19T17:17:43;4.00;99.90
49855;DHT22;35752;52.164;21.244;2023-02-19T17:22:40;4.00;99.90
49855;DHT22;35752;52.164;21.244;2023-02-19T17:25:05;4.10;99.90
49855;DHT22;35752;52.164;21.244;2023-02-19T17:27:31;4.20;99.90
49855;DHT22;35752;52.164;21.244;2023-02-19T17:29:56;4.10;99.90
49855;DHT22;35752;52.164;21.244;2023-02-19T17:32:22;4.20;99.90
49855;DHT22;35752;52.164;21.244;2023-02-19T17:34:47;4.20;99.90
49855;DHT22;35752;52.164;21.244;2023-02-19T17:37:14;4.20;99.90
49855;DHT22;35752;52.164;21.244;2023-02-19T17:39:39;4.20;99.90
49855;DHT22;35752;52.164;21.244;2023-02-19T17:42:05;4.10;99.90
49855;DHT22;35752;52.164;21.244;2023-02-19T17:44:30;4.10;99.90
49855;DHT22;35752;52.164;21.244;2023-02-19T17:46:56;4.00;99.90
49855;DHT22;35752;52.164;21.244;2023-02-19T17:49:21;4.00;99.90
49855;DHT22;35752;52.164;21.244;2023-02-19T17:51:47;3.90;99.90
49855;DHT22;35752;52.164;21.244;2023-02-19T17:54:12;3.90;99.90
49855;DHT22;35752;52.164;21.244;2023-02-19T17:56:38;3.90;99.40
49855;DHT22;35752;52.164;21.244;2023-02-19T17:59:07;3.80;99.50